McKean County Weather on FaceBook
Current Metar reports for airports in our Region

Nearby METAR Reports

Metar reports(Meteorological Terminal Aviation Routine) are mainly used by pilots for information on what is happening at their destination during their pre-flight weather briefings and by meteorologists to assist in short term forecasts. A raw Metar is one of the most universal ways to communicate weather information in the world and are usually transmitted by airports, but some come from permanent sanctioned weather observatories.

Listed below are Metars from airports within 100 miles of our station here in Smethport Pa. The first one of course is the Bradford Regional Airport, then the Olean NY airport and so on. Each airport has it's own table to display it's data and at the bottom of the table is 'Raw' Metar for each airport. Most pilots and weather forecasters can look at the raw data and tell you what is up, but we use a script that handles all of the details for us.

KBFD - Bradford, Pennsylvania, USA
Distance from station: NW 7mi, 11km
Updated: Tue, 20-Apr-2021 5:53am EDT
Overcast
Overcast
 Wind from W
Wind: W 8 mph , 13 km/h
Temperature: 43°F , 6°C
Wind Chill: 38°F , 3°C
Dew Point: 36°F , 2°C
Humidity: 76%
Barometer: 29.85 inHg , 1010.8 hPa
Clouds: Overcast
Visibility: 10 miles , 16 km
Cloud details: Mostly Cloudy 1200 ft
Mostly Cloudy 1800 ft
Overcast 3300 ft
2021/04/20 09:53 KBFD 200953Z AUTO 28007KT 10SM BKN012 BKN018 OVC033 06/02 A2985 RMK AO2 SLP110 T00560022
KOLE - Olean, New York, USA
Distance from station: NNE 37mi, 59km
Updated: Tue, 20-Apr-2021 6:35am EDT
Overcast
Overcast
 Wind from W
Wind: W 8 mph , 13 km/h
Temperature: 36°F , 2°C
Wind Chill: 30°F , -1°C
Dew Point: 36°F , 2°C
Humidity: 100%
Barometer: 29.85 inHg , 1010.8 hPa
Clouds: Overcast
Visibility: 10 miles , 16 km
Cloud details: Overcast 1300 ft
2021/04/20 10:35 KOLE 201035Z AUTO 26007KT 10SM OVC013 02/02 A2985 RMK AO2
 
KELZ - Wellsville, New York, USA
Distance from station: NE 40mi, 64km
Updated: Tue, 20-Apr-2021 6:26am EDT
Overcast
Overcast
 Wind from W
Wind: W 12 mph , 19 km/h
Temperature: 39°F , 4°C
Wind Chill: 32°F , 0°C
Dew Point: 37°F , 3°C
Humidity: 93%
Barometer: 29.85 inHg , 1010.8 hPa
Clouds: Overcast
Visibility: 10 miles , 16 km
Cloud details: Overcast 1500 ft
2021/04/20 10:26 KELZ 201026Z AUTO 28010KT 10SM OVC015 04/03 A2985 RMK AO2 T00440028
KDUJ - Du Bois, Pennsylvania, USA
Distance from station: SSW 42mi, 68km
Updated: Tue, 20-Apr-2021 5:53am EDT
Overcast
Overcast
 Wind from W
Wind: W 8 mph , 13 km/h
Temperature: 45°F , 7°C
Wind Chill: 41°F , 5°C
Dew Point: 37°F , 3°C
Humidity: 76%
Barometer: 29.87 inHg , 1011.5 hPa
Clouds: Overcast
Visibility: 10 miles , 16 km
Cloud details: Overcast 1600 ft
2021/04/20 09:53 KDUJ 200953Z AUTO 26007KT 10SM OVC016 07/03 A2987 RMK AO2 SLP115 T00670028
 
KJHW - Jamestown, New York, USA
Distance from station: NW 46mi, 75km
Updated: Tue, 20-Apr-2021 6:39am EDT
Overcast
Overcast
 Wind from W
Wind: W 15 mph , 24 km/h, Gust: 18 mph , 30 km/h
Temperature: 36°F , 2°C
Wind Chill: 27°F , -3°C
Dew Point: 34°F , 1°C
Humidity: 93%
Barometer: 29.89 inHg , 1012.2 hPa
Clouds: Overcast
Visibility: 10 miles , 16 km
Cloud details: Overcast 500 ft
2021/04/20 10:39 KJHW 201039Z AUTO 26013G16KT 10SM UP OVC005 02/01 A2989 RMK AO2 UPB13 P0000 FZRANO
KFIG - Clearfield, Pennsylvania, USA
Distance from station: S 47mi, 75km
Updated: Tue, 20-Apr-2021 5:54am EDT
Overcast
Overcast
 Wind from WSW
Wind: WSW 6 mph , 9 km/h
Temperature: 45°F , 7°C
Wind Chill: 42°F , 6°C
Dew Point: 39°F , 4°C
Humidity: 81%
Barometer: 29.88 inHg , 1011.9 hPa
Clouds: Overcast
Visibility: 10 miles , 16 km
Cloud details: Overcast 1800 ft
2021/04/20 09:54 KFIG 200954Z AUTO 25005KT 10SM OVC018 07/04 A2988 RMK AO2 SLP121 T00670039
 
KDKK - Dunkirk, New York, USA
Distance from station: NW 66mi, 106km
Updated: Tue, 20-Apr-2021 6:06am EDT
Light rain, Overcast
Light rain, Overcast
 Wind from SW
Wind: SW 13 mph , 20 km/h, Gust: 23 mph , 37 km/h
Temperature: 39°F , 4°C
Wind Chill: 31°F , -1°C
Dew Point: 37°F , 3°C
Humidity: 93%
Barometer: 29.92 inHg , 1013.2 hPa
Summary: Light Rain
Clouds: Overcast
Visibility: 10 miles , 16 km
Cloud details: Few Clouds 1000 ft
Partly Cloudy 2400 ft
Overcast 4200 ft
2021/04/20 10:06 KDKK 201006Z AUTO 23011G20KT 10SM -RA FEW010 SCT024 OVC042 04/03 A2992 RMK AO2 P0000 T00440028
KUNV - State College, Pennsylvania, USA
Distance from station: SSE 71mi, 114km
Updated: Tue, 20-Apr-2021 5:53am EDT
Clear
Clear
 Wind from WSW
Wind: WSW 10 mph , 17 km/h
Temperature: 46°F , 8°C
Wind Chill: 41°F , 5°C
Dew Point: 32°F , 0°C
Humidity: 57%
Barometer: 29.87 inHg , 1011.5 hPa
Clouds: Clear
Visibility: 10 miles , 16 km
2021/04/20 09:53 KUNV 200953Z 25009KT 10SM CLR 08/00 A2987
 
KFKL - Franklin, Pennsylvania, USA
Distance from station: WSW 72mi, 116km
Updated: Tue, 20-Apr-2021 6:29am EDT
Overcast
Overcast
 Wind from W
Wind: W 10 mph , 17 km/h
Temperature: 39°F , 4°C
Wind Chill: 32°F , 0°C
Dew Point: 36°F , 2°C
Humidity: 87%
Barometer: 29.93 inHg , 1013.5 hPa
Clouds: Overcast
Visibility: 10 miles , 16 km
Cloud details: Overcast 900 ft
2021/04/20 10:29 KFKL 201029Z AUTO 28009KT 10SM OVC009 04/02 A2993 RMK AO2
KDSV - Dansville, New York, USA
Distance from station: NE 73mi, 117km
Updated: Tue, 20-Apr-2021 5:54am EDT
Overcast
Overcast
 Wind from NNW
Wind: NNW 8 mph , 13 km/h
Temperature: 45°F , 7°C
Wind Chill: 41°F , 5°C
Dew Point: 39°F , 4°C
Humidity: 81%
Barometer: 29.86 inHg , 1011.2 hPa
Clouds: Overcast
Visibility: 10 miles , 16 km
Cloud details: Overcast 2600 ft
2021/04/20 09:54 KDSV 200954Z AUTO 33007KT 10SM OVC026 07/04 A2986 RMK AO2 SLP120 T00720039
 
KIDI - Indiana/Stewart, Pennsylvania, USA
Distance from station: SSW 81mi, 130km
Updated: Tue, 20-Apr-2021 6:35am EDT
Clear
Clear
 Wind from W
Wind: W 5 mph , 7 km/h
Temperature: 43°F , 6°C
Wind Chill: 40°F , 4°C
Dew Point: 39°F , 4°C
Humidity: 87%
Barometer: 29.96 inHg , 1014.6 hPa
Clouds: Clear
Visibility: 10 miles , 16 km
2021/04/20 10:35 KIDI 201035Z AUTO 27004KT 10SM CLR 06/04 A2996 RMK A01
KBUF - Buffalo/Cheektow, New York, USA
Distance from station: N 84mi, 136km
Updated: Tue, 20-Apr-2021 6:43am EDT
Overcast
Overcast
 Wind from WSW
Wind: WSW 15 mph , 24 km/h, Gust: 28 mph , 44 km/h
Temperature: 39°F , 4°C
Wind Chill: 31°F , -1°C
Dew Point: 36°F , 2°C
Humidity: 87%
Barometer: 29.88 inHg , 1011.9 hPa
Clouds: Overcast
Visibility: 10 miles , 16 km
Cloud details: Partly Cloudy 2000 ft
Overcast 4200 ft
2021/04/20 10:43 KBUF 201043Z 24013G24KT 10SM SCT020 OVC042 04/02 A2988 RMK AO2 RAE43 P0000 T00440022 $
 
KGKJ - Meadville, Pennsylvania, USA
Distance from station: W 86mi, 138km
Updated: Tue, 20-Apr-2021 6:44am EDT
Overcast
Overcast
 Wind from WNW
Wind: WNW 8 mph , 13 km/h
Temperature: 37°F , 3°C
Wind Chill: 31°F , -1°C
Dew Point: 32°F , 0°C
Humidity: 81%
Barometer: 29.93 inHg , 1013.5 hPa
Clouds: Overcast
Visibility: 10 miles , 16 km
Cloud details: Few Clouds 1600 ft
Overcast 4900 ft
2021/04/20 10:44 KGKJ 201044Z AUTO 29007KT 10SM FEW016 OVC049 03/00 A2993 RMK AO2 T00280000
KERI - Erie, Pennsylvania, USA
Distance from station: WNW 87mi, 140km
Updated: Tue, 20-Apr-2021 6:06am EDT
Overcast
Overcast
 Wind from WSW
Wind: WSW 8 mph , 13 km/h
Temperature: 39°F , 4°C
Wind Chill: 33°F , 1°C
Dew Point: 32°F , 0°C
Humidity: 75%
Barometer: 29.93 inHg , 1013.5 hPa
Clouds: Overcast
Visibility: 10 miles , 16 km
Cloud details: Few Clouds 1800 ft
Partly Cloudy 3800 ft
Overcast 7000 ft
2021/04/20 10:06 KERI 201006Z 24007KT 10SM FEW018 SCT038 OVC070 04/00 A2993 RMK AO2 RAB0952E01 P0000 T00440000
 
KELM - Elmira, New York, USA
Distance from station: ENE 90mi, 145km
Updated: Tue, 20-Apr-2021 5:53am EDT
Overcast
Overcast
 Wind from calm
Wind: Calm
Temperature: 43°F , 6°C
Dew Point: 37°F , 3°C
Humidity: 81%
Barometer: 29.83 inHg , 1010.2 hPa
Clouds: Overcast
Visibility: 10 miles , 16 km
Cloud details: Overcast 4400 ft
2021/04/20 09:53 KELM 200953Z 00000KT 10SM OVC044 06/03 A2983 RMK AO2 SLP104 T00560028
KIPT - Williamsport, Pennsylvania, USA
Distance from station: ESE 91mi, 146km
Updated: Tue, 20-Apr-2021 5:54am EDT
Clear
Clear
 Wind from calm
Wind: Calm
Temperature: 37°F , 3°C
Dew Point: 34°F , 1°C
Humidity: 87%
Barometer: 29.87 inHg , 1011.5 hPa
Clouds: Clear
Visibility: 10 miles , 16 km
2021/04/20 09:54 KIPT 200954Z AUTO 00000KT 10SM CLR 03/01 A2987 RMK AO2 SLP115 T00280011
 
KBTP - Butler Co., Pennsylvania, USA
Distance from station: SW 98mi, 157km
Updated: Tue, 20-Apr-2021 5:56am EDT
Overcast
Overcast
 Wind from varies
Wind: varies 5 mph , 7 km/h
Temperature: 45°F , 7°C
Wind Chill: 42°F , 6°C
Dew Point: 37°F , 3°C
Humidity: 76%
Barometer: 29.93 inHg , 1013.5 hPa
Clouds: Overcast
Visibility: 10 miles , 16 km
Cloud details: Overcast 2300 ft
2021/04/20 09:56 KBTP 200956Z AUTO VRB04KT 10SM OVC023 07/03 A2993 RMK AO2 SLP141 T00670033
KAOO - Altoona, Pennsylvania, USA
Distance from station: S 99mi, 159km
Updated: Tue, 20-Apr-2021 5:53am EDT
Clear
Clear
 Wind from SSW
Wind: SSW 10 mph , 17 km/h
Temperature: 48°F , 9°C
Wind Chill: 44°F , 7°C
Dew Point: 34°F , 1°C
Humidity: 58%
Barometer: 29.89 inHg , 1012.2 hPa
Clouds: Clear
Visibility: 10 miles , 16 km
2021/04/20 09:53 KAOO 200953Z AUTO 20009KT 10SM CLR 09/01 A2989 RMK AO2 SLP123 T00890011
 
KPIT - Pittsburg, Pennsylvania, USA
Distance from station: SSW 126mi, 203km
Updated: Tue, 20-Apr-2021 5:51am EDT
Overcast
Overcast
 Wind from WSW
Wind: WSW 5 mph , 7 km/h
Temperature: 45°F , 7°C
Wind Chill: 42°F , 6°C
Dew Point: 37°F , 3°C
Humidity: 76%
Barometer: 29.92 inHg , 1013.2 hPa
Clouds: Overcast
Visibility: 10 miles , 16 km
Cloud details: Mostly Cloudy 2000 ft
Overcast 11000 ft
2021/04/20 09:51 KPIT 200951Z 25004KT 10SM BKN020 OVC110 07/03 A2992 RMK AO2 SLP141 BKN V SCT T00720033
KCLE - Cleveland, Ohio, USA
Distance from station: WSW 160mi, 258km
Updated: Tue, 20-Apr-2021 6:13am EDT
Overcast
Overcast
 Wind from NW
Wind: NW 10 mph , 17 km/h
Temperature: 41°F , 5°C
Wind Chill: 35°F , 2°C
Dew Point: 30°F , -1°C
Humidity: 66%
Barometer: 29.96 inHg , 1014.6 hPa
Clouds: Overcast
Visibility: 10 miles , 16 km
Cloud details: Mostly Cloudy 2800 ft
Overcast 3500 ft
2021/04/20 10:13 KCLE 201013Z 31009KT 10SM BKN028 OVC035 05/M01 A2996 RMK AO2 T00501006 $